createdAt,value
2023-01-29T00:00:22.230Z,3.83
2023-01-29T00:02:48.733Z,3.80
2023-01-29T00:05:26.885Z,3.77
2023-01-29T00:07:53.964Z,3.77
2023-01-29T00:10:20.386Z,3.78
2023-01-29T00:12:46.765Z,3.79
2023-01-29T00:15:13.186Z,3.78
2023-01-29T00:17:39.543Z,3.76
2023-01-29T00:20:06.502Z,3.80
2023-01-29T00:22:32.864Z,3.81
2023-01-29T00:24:59.395Z,3.83
2023-01-29T00:27:25.796Z,3.85
2023-01-29T00:30:11.845Z,3.82
2023-01-29T00:32:39.589Z,3.78
2023-01-29T00:35:07.385Z,3.74
2023-01-29T00:37:33.798Z,3.72
2023-01-29T00:40:00.364Z,3.72
2023-01-29T00:42:45.191Z,3.76
2023-01-29T00:45:12.684Z,3.80
2023-01-29T00:47:39.103Z,3.80
2023-01-29T00:50:09.437Z,3.82
2023-01-29T00:52:36.752Z,3.82
2023-01-29T00:55:04.952Z,3.80
2023-01-29T00:57:33.562Z,3.82
2023-01-29T01:00:00.410Z,3.83
2023-01-29T01:02:46.185Z,3.80
2023-01-29T01:05:19.291Z,3.80
2023-01-29T01:07:52.945Z,3.80
2023-01-29T01:10:39.566Z,3.84
2023-01-29T01:13:07.182Z,3.83
2023-01-29T01:15:40.091Z,3.83
2023-01-29T01:18:06.907Z,3.83
2023-01-29T01:20:35.638Z,3.85
2023-01-29T01:23:02.363Z,3.87
2023-01-29T01:25:28.880Z,3.86
2023-01-29T01:27:56.988Z,3.87
2023-01-29T01:30:24.210Z,3.89
2023-01-29T01:32:50.783Z,3.90
2023-01-29T01:35:17.401Z,3.91
2023-01-29T01:37:43.819Z,3.88
2023-01-29T01:40:18.239Z,3.84
2023-01-29T01:42:49.301Z,3.87
2023-01-29T01:45:35.805Z,3.87
2023-01-29T01:48:21.009Z,3.89
2023-01-29T01:50:59.582Z,3.88
2023-01-29T01:53:34.353Z,3.90
2023-01-29T01:56:06.613Z,3.87
2023-01-29T01:58:40.891Z,3.89
2023-01-29T02:01:09.221Z,3.88
2023-01-29T02:04:06.415Z,3.90
2023-01-29T02:06:53.751Z,3.89
2023-01-29T02:09:34.818Z,3.89
2023-01-29T02:12:04.134Z,3.84
2023-01-29T02:14:31.941Z,3.84
2023-01-29T02:17:01.396Z,3.85
2023-01-29T02:19:58.275Z,3.84
2023-01-29T02:22:35.725Z,3.85
2023-01-29T02:25:16.091Z,3.87
2023-01-29T02:27:48.625Z,3.89
2023-01-29T02:30:30.744Z,3.88
2023-01-29T02:33:07.522Z,3.85
2023-01-29T02:35:46.131Z,3.80
2023-01-29T02:38:31.800Z,3.72
2023-01-29T02:41:07.990Z,3.69
2023-01-29T02:43:47.898Z,3.70
2023-01-29T02:46:39.711Z,3.71
2023-01-29T02:49:34.872Z,3.71
2023-01-29T02:52:16.929Z,3.72
2023-01-29T02:55:10.493Z,3.71
2023-01-29T02:57:43.639Z,3.71
2023-01-29T03:00:21.099Z,3.74
2023-01-29T03:03:41.774Z,3.73
2023-01-29T03:06:22.791Z,3.70
2023-01-29T03:08:56.356Z,3.71
2023-01-29T03:11:22.965Z,3.72
2023-01-29T03:13:58.440Z,3.72
2023-01-29T03:16:42.902Z,3.73
2023-01-29T03:19:39.673Z,3.77
2023-01-29T03:22:08.951Z,3.76
2023-01-29T03:24:58.963Z,3.75
2023-01-29T03:27:48.245Z,3.76
2023-01-29T03:30:36.959Z,3.76
2023-01-29T03:33:09.065Z,3.74
2023-01-29T03:35:41.832Z,3.76
2023-01-29T03:38:11.363Z,3.75
2023-01-29T03:40:49.346Z,3.70
2023-01-29T03:43:35.509Z,3.70
2023-01-29T03:46:10.352Z,3.72
2023-01-29T03:48:43.940Z,3.74
2023-01-29T03:51:12.980Z,3.73
2023-01-29T03:53:54.698Z,3.71
2023-01-29T03:56:33.948Z,3.68
2023-01-29T03:59:41.092Z,3.69
2023-01-29T04:02:18.020Z,3.72
2023-01-29T04:04:46.953Z,3.74
2023-01-29T04:07:17.562Z,3.71
2023-01-29T04:09:48.700Z,3.71
2023-01-29T04:12:20.412Z,3.74
2023-01-29T04:14:49.684Z,3.73
2023-01-29T04:17:21.505Z,3.68
2023-01-29T04:19:47.972Z,3.66
2023-01-29T04:22:22.556Z,3.64
2023-01-29T04:24:50.852Z,3.63
2023-01-29T04:27:29.758Z,3.65
2023-01-29T04:30:26.968Z,3.66
2023-01-29T04:33:18.069Z,3.62
2023-01-29T04:36:00.049Z,3.59
2023-01-29T04:38:50.864Z,3.59
2023-01-29T04:41:28.297Z,3.62
2023-01-29T04:44:10.844Z,3.60
2023-01-29T04:46:46.366Z,3.56
2023-01-29T04:49:31.302Z,3.53
2023-01-29T04:52:09.009Z,3.49
2023-01-29T04:54:43.477Z,3.49
2023-01-29T04:57:34.546Z,3.50
2023-01-29T05:00:08.494Z,3.51
2023-01-29T05:02:39.309Z,3.50
2023-01-29T05:05:07.736Z,3.53
2023-01-29T05:07:37.065Z,3.56
2023-01-29T05:10:08.412Z,3.49
2023-01-29T05:12:37.163Z,3.50
2023-01-29T05:15:09.076Z,3.49
2023-01-29T05:17:35.526Z,3.47
2023-01-29T05:20:01.956Z,3.49
2023-01-29T05:22:29.344Z,3.47
2023-01-29T05:24:55.735Z,3.50
2023-01-29T05:27:50.740Z,3.51
2023-01-29T05:30:17.574Z,3.52
2023-01-29T05:32:44.086Z,3.52
2023-01-29T05:35:10.615Z,3.49
2023-01-29T05:37:37.070Z,3.49
2023-01-29T05:40:03.763Z,3.49
2023-01-29T05:42:30.670Z,3.51
2023-01-29T05:44:57.024Z,3.48
2023-01-29T05:47:23.519Z,3.50
2023-01-29T05:49:49.840Z,3.48
2023-01-29T05:52:16.260Z,3.50
2023-01-29T05:54:42.748Z,3.53
2023-01-29T05:57:09.134Z,3.54
2023-01-29T05:59:35.453Z,3.51
2023-01-29T06:02:01.921Z,3.49
2023-01-29T06:04:28.362Z,3.47
2023-01-29T06:06:54.947Z,3.48
2023-01-29T06:09:21.276Z,3.43
2023-01-29T06:11:47.661Z,3.44
2023-01-29T06:14:13.994Z,3.44
2023-01-29T06:16:40.420Z,3.42
2023-01-29T06:19:07.088Z,3.41
2023-01-29T06:21:33.543Z,3.45
2023-01-29T06:24:00.022Z,3.45
2023-01-29T06:26:26.478Z,3.44
2023-01-29T06:28:52.888Z,3.45
2023-01-29T06:31:36.913Z,3.43
2023-01-29T06:34:04.695Z,3.46
2023-01-29T06:36:31.105Z,3.48
2023-01-29T06:38:57.514Z,3.48
2023-01-29T06:41:25.356Z,3.48
2023-01-29T06:43:52.032Z,3.44
2023-01-29T06:46:18.387Z,3.40
2023-01-29T06:48:44.731Z,3.41
2023-01-29T06:51:11.772Z,3.43
2023-01-29T06:53:39.334Z,3.45
2023-01-29T06:56:06.531Z,3.39
2023-01-29T06:58:33.115Z,3.43
2023-01-29T07:01:15.531Z,3.42
2023-01-29T07:03:51.817Z,3.38
2023-01-29T07:06:18.668Z,3.39
2023-01-29T07:08:45.520Z,3.40
2023-01-29T07:11:12.577Z,3.44
2023-01-29T07:13:39.037Z,3.39
2023-01-29T07:16:06.707Z,3.39
2023-01-29T07:18:33.281Z,3.38
2023-01-29T07:21:04.463Z,3.42
2023-01-29T07:23:30.828Z,3.45
2023-01-29T07:26:01.126Z,3.43
2023-01-29T07:28:27.539Z,3.44
2023-01-29T07:30:58.622Z,3.47
2023-01-29T07:33:25.404Z,3.42
2023-01-29T07:35:52.236Z,3.43
2023-01-29T07:38:18.731Z,3.42
2023-01-29T07:40:45.184Z,3.41
2023-01-29T07:43:11.662Z,3.42
2023-01-29T07:45:39.892Z,3.38
2023-01-29T07:48:09.738Z,3.39
2023-01-29T07:50:36.627Z,3.42
2023-01-29T07:53:03.620Z,3.43
2023-01-29T07:55:31.047Z,3.44
2023-01-29T07:57:59.395Z,3.46
2023-01-29T08:00:26.018Z,3.42
2023-01-29T08:02:52.759Z,3.40
2023-01-29T08:05:20.110Z,3.41
2023-01-29T08:07:51.558Z,3.46
2023-01-29T08:10:27.820Z,3.45
2023-01-29T08:12:59.261Z,3.43
2023-01-29T08:15:26.240Z,3.46
2023-01-29T08:20:39.985Z,3.45
2023-01-29T08:23:10.140Z,3.45
2023-01-29T08:25:36.640Z,3.48
2023-01-29T08:28:04.516Z,3.49
2023-01-29T08:30:32.832Z,3.46
2023-01-29T08:32:59.214Z,3.43
2023-01-29T08:35:26.330Z,3.44
2023-01-29T08:38:03.573Z,3.42
2023-01-29T08:40:32.230Z,3.43
2023-01-29T08:43:04.548Z,3.47
2023-01-29T08:45:34.052Z,3.48
2023-01-29T08:48:00.506Z,3.47
2023-01-29T08:50:26.999Z,3.46
2023-01-29T08:52:59.075Z,3.49
2023-01-29T08:55:26.161Z,3.45
2023-01-29T08:57:52.538Z,3.48
2023-01-29T09:00:19.542Z,3.52
2023-01-29T09:02:46.025Z,3.51
2023-01-29T09:05:12.409Z,3.49
2023-01-29T09:07:38.779Z,3.48
2023-01-29T09:10:05.748Z,3.42
2023-01-29T09:12:32.103Z,3.45
2023-01-29T09:14:58.444Z,3.48
2023-01-29T09:17:24.761Z,3.51
2023-01-29T09:19:52.944Z,3.51
2023-01-29T09:22:20.270Z,3.52
2023-01-29T09:24:46.672Z,3.54
2023-01-29T09:27:13.562Z,3.54
2023-01-29T09:29:39.998Z,3.49
2023-01-29T09:32:06.924Z,3.50
2023-01-29T09:34:33.665Z,3.48
2023-01-29T09:37:00.189Z,3.51
2023-01-29T09:39:26.564Z,3.51
2023-01-29T09:42:01.878Z,3.53
2023-01-29T09:44:40.463Z,3.52
2023-01-29T09:47:12.763Z,3.53
2023-01-29T09:49:47.867Z,3.54
2023-01-29T09:52:55.764Z,3.55
2023-01-29T09:55:28.554Z,3.54
2023-01-29T09:57:59.279Z,3.57
2023-01-29T10:00:30.565Z,3.55
2023-01-29T10:03:21.057Z,3.54
2023-01-29T10:05:56.457Z,3.52
2023-01-29T10:08:46.718Z,3.56
2023-01-29T10:11:26.459Z,3.55
2023-01-29T10:14:14.524Z,3.57
2023-01-29T10:17:06.959Z,3.62
2023-01-29T10:19:42.463Z,3.65
2023-01-29T10:22:43.425Z,3.66
2023-01-29T10:25:19.666Z,3.68
2023-01-29T10:27:53.149Z,3.70
2023-01-29T10:30:47.423Z,3.68
2023-01-29T10:33:49.481Z,3.71
2023-01-29T10:36:34.044Z,3.70
2023-01-29T10:39:00.540Z,3.68
2023-01-29T10:41:40.959Z,3.70
2023-01-29T10:44:36.391Z,3.70
2023-01-29T10:47:29.258Z,3.72
2023-01-29T10:50:15.297Z,3.74
2023-01-29T10:53:18.724Z,3.78
2023-01-29T10:56:23.584Z,3.77
2023-01-29T10:59:05.294Z,3.75
2023-01-29T11:01:31.837Z,3.73
2023-01-29T11:04:03.613Z,3.73
2023-01-29T11:06:32.844Z,3.76
2023-01-29T11:09:33.157Z,3.77
2023-01-29T11:12:10.518Z,3.79
2023-01-29T11:14:47.962Z,3.81
2023-01-29T11:17:16.807Z,3.84
2023-01-29T11:19:46.137Z,3.82
2023-01-29T11:22:13.733Z,3.80
2023-01-29T11:24:40.128Z,3.80
2023-01-29T11:27:33.589Z,3.78
2023-01-29T11:30:00.143Z,3.81
2023-01-29T11:32:30.457Z,3.80
2023-01-29T11:34:56.762Z,3.81
2023-01-29T11:37:23.705Z,3.82
2023-01-29T11:39:50.573Z,3.83
2023-01-29T11:42:22.396Z,3.83
2023-01-29T11:44:49.393Z,3.83
2023-01-29T11:47:26.908Z,3.82
2023-01-29T11:50:00.900Z,3.84
2023-01-29T11:52:36.043Z,3.83
2023-01-29T11:55:07.095Z,3.83
2023-01-29T11:57:38.724Z,3.83
2023-01-29T12:00:17.836Z,3.85
2023-01-29T12:03:10.488Z,3.86
2023-01-29T12:05:39.201Z,3.86
2023-01-29T12:08:17.061Z,3.86
2023-01-29T12:10:44.367Z,3.83
2023-01-29T12:13:10.870Z,3.80
2023-01-29T12:15:41.945Z,3.82
2023-01-29T12:18:29.987Z,3.85
2023-01-29T12:21:03.365Z,3.86
2023-01-29T12:23:41.683Z,3.86
2023-01-29T12:26:15.932Z,3.87
2023-01-29T12:28:54.679Z,3.87
2023-01-29T12:31:32.607Z,3.87
2023-01-29T12:34:25.160Z,3.88
2023-01-29T12:37:15.164Z,3.88
2023-01-29T12:39:41.644Z,3.89
2023-01-29T12:42:22.933Z,3.91
2023-01-29T12:44:57.612Z,3.91
2023-01-29T12:47:47.129Z,3.91
2023-01-29T12:50:28.272Z,3.93
2023-01-29T12:53:05.074Z,3.91
2023-01-29T12:55:38.145Z,3.90
2023-01-29T12:58:12.686Z,3.93
2023-01-29T13:00:43.399Z,3.92
2023-01-29T13:03:27.560Z,3.93
2023-01-29T13:06:17.151Z,3.92
2023-01-29T13:08:53.762Z,3.93
2023-01-29T13:11:31.484Z,3.96
2023-01-29T13:14:07.973Z,3.96
2023-01-29T13:16:40.586Z,3.98
2023-01-29T13:19:21.056Z,3.97
2023-01-29T13:21:48.602Z,4.00
2023-01-29T13:24:18.445Z,4.03
2023-01-29T13:26:46.919Z,4.05
2023-01-29T13:29:31.752Z,4.05
2023-01-29T13:32:00.676Z,4.05
2023-01-29T13:34:31.689Z,4.04
2023-01-29T13:37:01.475Z,4.08
2023-01-29T13:39:35.158Z,4.09
2023-01-29T13:42:14.907Z,4.10
2023-01-29T13:44:41.525Z,4.13
2023-01-29T13:47:12.152Z,4.14
2023-01-29T13:49:53.390Z,4.15
2023-01-29T13:52:40.972Z,4.15
2023-01-29T13:55:22.329Z,4.15
2023-01-29T13:57:52.310Z,4.17
2023-01-29T14:00:20.309Z,4.18
2023-01-29T14:02:55.778Z,4.18
2023-01-29T14:05:31.492Z,4.20
2023-01-29T14:07:59.347Z,4.20
2023-01-29T14:10:30.776Z,4.22
2023-01-29T14:13:03.070Z,4.24
2023-01-29T14:15:34.651Z,4.25
2023-01-29T14:18:24.970Z,4.27
2023-01-29T14:21:00.231Z,4.27
2023-01-29T14:23:41.972Z,4.29
2023-01-29T14:26:43.759Z,4.31
2023-01-29T14:29:18.798Z,4.31
2023-01-29T14:32:06.228Z,4.31
2023-01-29T14:34:49.373Z,4.33
2023-01-29T14:37:15.680Z,4.34
2023-01-29T14:39:45.099Z,4.35
2023-01-29T14:42:25.843Z,4.37
2023-01-29T14:45:00.165Z,4.39
2023-01-29T14:47:32.631Z,4.39
2023-01-29T14:50:01.897Z,4.40
2023-01-29T14:52:50.513Z,4.40
2023-01-29T14:55:30.947Z,4.40
2023-01-29T14:57:58.412Z,4.41
2023-01-29T15:00:29.141Z,4.41
2023-01-29T15:03:02.332Z,4.40
2023-01-29T15:05:37.466Z,4.40
2023-01-29T15:08:13.669Z,4.40
2023-01-29T15:11:10.724Z,4.41
2023-01-29T15:13:47.837Z,4.42
2023-01-29T15:16:24.187Z,4.43
2023-01-29T15:18:54.936Z,4.45
2023-01-29T15:21:21.443Z,4.46
2023-01-29T15:23:48.713Z,4.46
2023-01-29T15:26:24.779Z,4.44
2023-01-29T15:29:05.046Z,4.44
2023-01-29T15:31:32.234Z,4.45
2023-01-29T15:34:04.752Z,4.45
2023-01-29T15:36:32.036Z,4.44
2023-01-29T15:39:17.155Z,4.44
2023-01-29T15:41:44.700Z,4.44
2023-01-29T15:44:22.592Z,4.45
2023-01-29T15:46:57.109Z,4.42
2023-01-29T15:49:37.975Z,4.42
2023-01-29T15:52:08.195Z,4.45
2023-01-29T15:54:35.970Z,4.42
2023-01-29T15:57:03.517Z,4.44
2023-01-29T15:59:34.621Z,4.44
2023-01-29T16:02:35.294Z,4.46
2023-01-29T16:05:02.520Z,4.43
2023-01-29T16:07:29.975Z,4.42
2023-01-29T16:09:57.402Z,4.43
2023-01-29T16:12:24.421Z,4.41
2023-01-29T16:14:51.535Z,4.40
2023-01-29T16:17:30.574Z,4.38
2023-01-29T16:19:59.218Z,4.37
2023-01-29T16:22:30.525Z,4.36
2023-01-29T16:25:02.020Z,4.36
2023-01-29T16:27:30.917Z,4.37
2023-01-29T16:29:57.691Z,4.36
2023-01-29T16:32:24.284Z,4.35
2023-01-29T16:34:57.516Z,4.33
2023-01-29T16:37:30.505Z,4.31
2023-01-29T16:39:57.580Z,4.32
2023-01-29T16:42:31.390Z,4.32
2023-01-29T16:45:06.050Z,4.31
2023-01-29T16:47:41.510Z,4.29
2023-01-29T16:50:54.896Z,4.30
2023-01-29T16:53:24.443Z,4.28
2023-01-29T16:55:52.319Z,4.25
2023-01-29T16:58:28.136Z,4.22
2023-01-29T17:01:03.560Z,4.20
2023-01-29T17:03:33.225Z,4.17
2023-01-29T17:06:09.068Z,4.17
2023-01-29T17:08:36.070Z,4.20
2023-01-29T17:11:03.076Z,4.21
2023-01-29T17:13:42.667Z,4.18
2023-01-29T17:16:28.034Z,4.14
2023-01-29T17:18:54.801Z,4.14
2023-01-29T17:21:21.331Z,4.16
2023-01-29T17:23:47.746Z,4.14
2023-01-29T17:26:15.060Z,4.15
2023-01-29T17:28:41.937Z,4.14
2023-01-29T17:31:08.847Z,4.10
2023-01-29T17:33:42.299Z,4.11
2023-01-29T17:36:14.266Z,4.10
2023-01-29T17:38:41.133Z,4.08
2023-01-29T17:41:11.548Z,4.11
2023-01-29T17:43:38.010Z,4.14
2023-01-29T17:46:04.829Z,4.14
2023-01-29T17:48:31.811Z,4.16
2023-01-29T17:51:03.669Z,4.17
2023-01-29T17:53:44.556Z,4.16
2023-01-29T17:56:23.542Z,4.15
2023-01-29T17:58:49.992Z,4.12
2023-01-29T18:01:16.470Z,4.09
2023-01-29T18:03:42.927Z,4.11
2023-01-29T18:06:12.500Z,4.13
2023-01-29T18:08:39.705Z,4.14
2023-01-29T18:11:06.289Z,4.13
2023-01-29T18:13:32.915Z,4.11
2023-01-29T18:15:59.426Z,4.09
2023-01-29T18:18:25.863Z,4.10
2023-01-29T18:20:52.340Z,4.08
2023-01-29T18:23:18.809Z,4.12
2023-01-29T18:25:45.350Z,4.13
2023-01-29T18:28:17.150Z,4.11
2023-01-29T18:30:47.007Z,4.13
2023-01-29T18:33:14.293Z,4.12
2023-01-29T18:35:40.768Z,4.14
2023-01-29T18:38:07.155Z,4.15
2023-01-29T18:40:33.621Z,4.17
2023-01-29T18:43:00.878Z,4.18
2023-01-29T18:45:28.678Z,4.17
2023-01-29T18:47:55.424Z,4.18
2023-01-29T18:50:26.198Z,4.19
2023-01-29T18:52:55.793Z,4.20
2023-01-29T18:55:23.388Z,4.20
2023-01-29T18:58:25.851Z,4.20
2023-01-29T19:00:40.346Z,4.20
2023-01-29T19:03:06.811Z,4.17
2023-01-29T19:05:34.003Z,4.16
2023-01-29T19:08:00.899Z,4.19
2023-01-29T19:10:27.377Z,4.19
2023-01-29T19:12:53.771Z,4.20
2023-01-29T19:15:21.940Z,4.21
2023-01-29T19:17:49.568Z,4.18
2023-01-29T19:20:16.049Z,4.19
2023-01-29T19:22:42.438Z,4.19
2023-01-29T19:25:09.408Z,4.22
2023-01-29T19:27:35.856Z,4.19
2023-01-29T19:30:05.416Z,4.20
2023-01-29T19:32:32.320Z,4.22
2023-01-29T19:34:58.795Z,4.21
2023-01-29T19:37:25.469Z,4.23
2023-01-29T19:39:52.020Z,4.21
2023-01-29T19:42:20.305Z,4.18
2023-01-29T19:44:46.690Z,4.21
2023-01-29T19:47:13.204Z,4.19
2023-01-29T19:49:40.496Z,4.19
2023-01-29T19:52:14.655Z,4.20
2023-01-29T19:54:46.119Z,4.20
2023-01-29T19:57:12.536Z,4.20
2023-01-29T19:59:38.997Z,4.20
2023-01-29T20:02:05.510Z,4.20
2023-01-29T20:04:32.284Z,4.18
2023-01-29T20:06:59.417Z,4.18
2023-01-29T20:09:25.925Z,4.20
2023-01-29T20:11:52.440Z,4.20
2023-01-29T20:14:18.890Z,4.20
2023-01-29T20:16:45.302Z,4.23
2023-01-29T20:19:13.667Z,4.24
2023-01-29T20:21:41.765Z,4.24
2023-01-29T20:24:12.155Z,4.23
2023-01-29T20:26:38.952Z,4.23
2023-01-29T20:29:06.387Z,4.24
2023-01-29T20:31:33.611Z,4.24
2023-01-29T20:34:00.238Z,4.24
2023-01-29T20:36:26.723Z,4.26
2023-01-29T20:38:53.145Z,4.26
2023-01-29T20:41:19.636Z,4.26
2023-01-29T20:43:47.140Z,4.25
2023-01-29T20:46:13.861Z,4.27
2023-01-29T20:48:41.896Z,4.29
2023-01-29T20:51:15.533Z,4.30
2023-01-29T20:53:45.033Z,4.31
2023-01-29T20:56:12.125Z,4.31
2023-01-29T20:58:40.763Z,4.31
2023-01-29T21:01:09.378Z,4.31
2023-01-29T21:03:35.812Z,4.32
2023-01-29T21:06:02.273Z,4.34
2023-01-29T21:08:28.699Z,4.34
2023-01-29T21:10:55.058Z,4.35
2023-01-29T21:13:21.550Z,4.35
2023-01-29T21:15:50.943Z,4.37
2023-01-29T21:18:17.543Z,4.37
2023-01-29T21:20:44.483Z,4.39
2023-01-29T21:23:11.138Z,4.41
2023-01-29T21:25:38.613Z,4.41
2023-01-29T21:28:06.054Z,4.43
2023-01-29T21:30:32.930Z,4.45
2023-01-29T21:32:59.639Z,4.46
2023-01-29T21:35:25.992Z,4.48
2023-01-29T21:37:52.396Z,4.50
2023-01-29T21:40:20.115Z,4.51
2023-01-29T21:43:05.764Z,4.54
2023-01-29T21:45:34.162Z,4.56
2023-01-29T21:48:01.367Z,4.59
2023-01-29T21:50:27.769Z,4.59
2023-01-29T21:52:54.142Z,4.60
2023-01-29T21:55:20.549Z,4.63
2023-01-29T21:57:47.030Z,4.65
2023-01-29T22:00:13.741Z,4.66
2023-01-29T22:02:40.399Z,4.67
2023-01-29T22:05:18.751Z,4.68
2023-01-29T22:07:45.640Z,4.69
2023-01-29T22:10:12.456Z,4.69
2023-01-29T22:12:39.736Z,4.69
2023-01-29T22:15:07.569Z,4.72
2023-01-29T22:17:34.252Z,4.71
2023-01-29T22:20:01.066Z,4.72
2023-01-29T22:22:27.602Z,4.74
2023-01-29T22:24:55.074Z,4.75
2023-01-29T22:27:21.501Z,4.76
2023-01-29T22:29:47.918Z,4.76
2023-01-29T22:32:14.417Z,4.78
2023-01-29T22:34:40.811Z,4.78
2023-01-29T22:37:07.461Z,4.78
2023-01-29T22:39:33.953Z,4.79
2023-01-29T22:42:00.413Z,4.80
2023-01-29T22:44:26.782Z,4.81
2023-01-29T22:46:53.174Z,4.83
2023-01-29T22:49:19.721Z,4.83
2023-01-29T22:51:47.145Z,4.86
2023-01-29T22:54:15.476Z,4.86
2023-01-29T22:56:41.881Z,4.88
2023-01-29T22:59:10.031Z,4.89
2023-01-29T23:01:36.465Z,4.90
2023-01-29T23:04:02.859Z,4.94
2023-01-29T23:06:29.228Z,4.95
2023-01-29T23:08:55.680Z,4.96
2023-01-29T23:11:23.497Z,4.99
2023-01-29T23:13:52.644Z,5.01
2023-01-29T23:16:21.292Z,5.02
2023-01-29T23:18:53.040Z,5.02
2023-01-29T23:21:21.167Z,5.04
2023-01-29T23:23:47.519Z,5.07
2023-01-29T23:26:33.687Z,5.09
2023-01-29T23:29:00.378Z,5.12
2023-01-29T23:31:26.886Z,5.13
2023-01-29T23:33:53.296Z,5.15
2023-01-29T23:36:19.699Z,5.17
2023-01-29T23:38:46.242Z,5.20
2023-01-29T23:41:12.634Z,5.26
2023-01-29T23:43:39.012Z,5.33
2023-01-29T23:46:05.607Z,5.34
2023-01-29T23:48:31.991Z,5.34
2023-01-29T23:50:58.384Z,5.34
2023-01-29T23:53:24.806Z,5.35
2023-01-29T23:56:02.413Z,5.36
2023-01-29T23:58:29.829Z,5.40
